Willow Park, Texas
Current Conditions -  °F | °C
As of 3:53 PM on Thursday 27 Nov 2014 (Local Time) from KMWL Reporting Station
Clear Clear  
Wind Chill: 58°   Ceiling: Unl
Heat Index: 58°   Visibility: 10mi
Dew Point: 24°   Wind: 7mph
Humidity: 27%   Direction: 140°SE
Pressure: 30.39"   Gusts: NA
Location:  32.7558°N, 97.7972°W
Report Text: KMWL 272153Z AUTO 14006KT 10SM CLR 14/M04 A3039 RMK AO2 SLP289 T01441044
Loading
Personal Weather Stations






























Interactive Weather Map New forecast layout! Learn more

10-Day Weather Forecast

Advertisements
Track Severe Weather on mobile